London Gatwick Airport

EGKK · Engeland, Verenigd Koninkrijk

METAR historie EGKK · Luchthaven Londen Gatwick

Hieronder zie je METAR's van de afgelopen dagen. Kies een jaar om door oudere METAR's te bladeren, vanaf het jaar 2007.

6 december 2022

Tijd Code Weer Temp. Zicht Plafond Wind METAR/SPECI
22:50
M
5 °C 10 km+ 1.300 ft 320° 320° 4 kt METAR EGKK 062250Z 32004KT 9999 BKN013 05/03 Q1023
22:20
M
5 °C 10 km+ 1.300 ft 310° 310° 4 kt METAR EGKK 062220Z 31004KT 9999 BKN013 05/03 Q1023
21:50
V
5 °C 10 km+ - 300° 300° 3 kt METAR EGKK 062150Z 30003KT 9999 SCT014 SCT031 05/03 Q1023
21:20
V
5 °C 10 km+ 3.100 ft 320° 320° 3 kt METAR EGKK 062120Z 32003KT 9999 FEW024 BKN031 05/03 Q1023
20:50
V
5 °C 10 km+ - 320° 320° 5 kt METAR EGKK 062050Z 32005KT 9999 FEW013 SCT021 05/03 Q1023
20:20
M
5 °C 10 km+ 1.400 ft 330° 330° 5 kt METAR EGKK 062020Z 33005KT 9999 BKN014 05/02 Q1023
19:50
M
5 °C 10 km+ 2.500 ft 300° 300° 4 kt METAR EGKK 061950Z 30004KT 9999 BKN025 05/02 Q1023
19:20
M
5 °C 10 km+ 2.100 ft 320° 320° 4 kt METAR EGKK 061920Z 32004KT 290V010 9999 BKN021 05/02 Q1023
18:50
V
5 °C 10 km+ - 350° 350° 6 kt METAR EGKK 061850Z 35006KT 310V020 9999 SCT015 05/02 Q1023
18:20
V
5 °C 10 km+ - 350° 350° 7 kt METAR EGKK 061820Z 35007KT 310V010 9999 FEW016 05/02 Q1023
17:50
V
4 °C 10 km+ - 010° 010° 5 kt METAR EGKK 061750Z 01005KT 9999 FEW025 04/01 Q1022
17:20
V
4 °C 10 km+ - 360° 360° 5 kt METAR EGKK 061720Z 36005KT 9999 FEW028 04/01 Q1022
16:50
V
4 °C 10 km+ - Var Var 2 kt METAR EGKK 061650Z VRB02KT 9999 FEW030 04/01 Q1022
16:20
V
5 °C 10 km+ - 340° 340° 5 kt METAR EGKK 061620Z 34005KT 9999 FEW028 05/01 Q1022
15:50
V
5 °C 10 km+ - Var Var 3 kt METAR EGKK 061550Z VRB03KT 9999 FEW029 05/01 Q1022
15:20
V
6 °C 10 km+ - 350° 350° 5 kt METAR EGKK 061520Z 35005KT CAVOK 06/01 Q1022
14:50
V
6 °C 10 km+ - 350° 350° 8 kt METAR EGKK 061450Z 35008KT CAVOK 06/01 Q1022
14:20
V
7 °C 10 km+ - 020° 020° 8 kt METAR EGKK 061420Z 02008KT CAVOK 07/01 Q1022
13:50
V
7 °C 10 km+ - 010° 010° 9 kt METAR EGKK 061350Z 01009KT 9999 FEW048 07/01 Q1022
13:20
V
7 °C 10 km+ - 360° 360° 9 kt METAR EGKK 061320Z 36009KT 340V100 9999 FEW048 07/01 Q1023
12:50
V
7 °C 10 km+ - 020° 020° 9 kt METAR EGKK 061250Z 02009KT 9999 FEW047 07/02 Q1023
12:20
V
7 °C 10 km+ - 360° 360° 9 kt METAR EGKK 061220Z 36009KT 9999 FEW020 07/02 Q1023
11:50
V
6 °C 10 km+ - 360° 360° 8 kt METAR EGKK 061150Z 36008KT 9999 FEW018 06/02 Q1023
11:20
V
5 °C 10 km+ - 010° 010° 8 kt METAR EGKK 061120Z 01008KT 9999 FEW049 05/02 Q1024
10:50
V
5 °C 10 km+ - 010° 010° 7 kt METAR EGKK 061050Z 01007KT CAVOK 05/02 Q1024
10:20
V
5 °C 10 km+ - Var Var 7 - 19 kt METAR EGKK 061020Z VRB07G19KT CAVOK 05/02 Q1024
09:50
V
5 °C 10 km+ - 010° 010° 7 - 17 kt METAR EGKK 060950Z 01007G17KT 350V110 9999 FEW044 05/02 Q1024
09:20
V
4 °C 10 km+ - 020° 020° 6 kt METAR EGKK 060920Z 02006KT 9999 FEW040 04/02 Q1024
08:50
V
4 °C 10 km+ - 010° 010° 6 kt METAR EGKK 060850Z 01006KT 340V110 9999 SCT041 04/02 Q1023
08:20
V
3 °C 10 km+ - 010° 010° 6 kt METAR EGKK 060820Z 01006KT 9999 FEW046 03/02 Q1023
07:50
V
3 °C 10 km+ - 020° 020° 6 kt METAR EGKK 060750Z 02006KT 9999 FEW032 03/02 Q1023
07:20
V
3 °C 10 km+ - 020° 020° 6 kt METAR EGKK 060720Z 02006KT 9999 FEW046 03/02 Q1023
06:50
V
3 °C 10 km+ - 010° 010° 6 kt METAR EGKK 060650Z 01006KT 9999 FEW039 03/02 Q1023
06:20
V
3 °C 10 km+ - 010° 010° 5 kt METAR EGKK 060620Z 01005KT 9999 FEW010 SCT038 03/02 Q1023
05:50
V
3 °C 10 km+ - 020° 020° 6 kt METAR EGKK 060550Z 02006KT 9999 FEW034 03/02 Q1023
05:20
V
3 °C 10 km+ - 360° 360° 7 kt METAR EGKK 060520Z 36007KT CAVOK 03/02 Q1023
04:50
V
3 °C 10 km+ - 010° 010° 7 kt METAR EGKK 060450Z 01007KT CAVOK 03/02 Q1023
04:20
V
3 °C 10 km+ - 010° 010° 7 kt METAR EGKK 060420Z 01007KT CAVOK 03/02 Q1023
03:50
V
3 °C 10 km+ - 020° 020° 7 kt METAR EGKK 060350Z 02007KT CAVOK 03/02 Q1023
03:20
V
4 °C 10 km+ - 010° 010° 7 kt METAR EGKK 060320Z 01007KT 9999 FEW048 04/02 Q1023
02:50
V
4 °C 10 km+ - 360° 360° 7 kt METAR EGKK 060250Z 36007KT 9999 SCT048 04/03 Q1023
02:20
V
4 °C 10 km+ - 020° 020° 7 kt METAR EGKK 060220Z 02007KT 9999 SCT048 04/03 Q1023
01:50
V
4 °C 10 km+ - 020° 020° 7 kt METAR EGKK 060150Z 02007KT 9999 SCT047 04/03 Q1023
01:20
V
4 °C 10 km+ - 360° 360° 6 kt METAR EGKK 060120Z 36006KT 9999 FEW048 04/03 Q1023
00:50
V
5 °C 10 km+ - 360° 360° 6 kt METAR EGKK 060050Z 36006KT 9999 FEW046 05/03 Q1023
00:20
V
5 °C 10 km+ 4.500 ft 010° 010° 6 kt METAR EGKK 060020Z 01006KT 9999 BKN045 05/03 Q1023

5 december 2022

Tijd Code Weer Temp. Zicht Plafond Wind METAR/SPECI
23:50
V
6 °C 10 km+ 4.200 ft 010° 010° 8 kt METAR EGKK 052350Z 01008KT 9999 BKN042 06/03 Q1023
23:20
V
6 °C 10 km+ 4.100 ft 020° 020° 5 kt METAR EGKK 052320Z 02005KT 9999 BKN041 06/04 Q1023
22:50
V
6 °C 10 km+ 4.500 ft 010° 010° 4 kt METAR EGKK 052250Z 01004KT 9999 FEW015 BKN045 06/04 Q1023
22:20
V
6 °C 10 km+ 4.200 ft 020° 020° 5 kt METAR EGKK 052220Z 02005KT 9999 -SHRA FEW015 BKN042 06/04 Q1024
21:50
V
7 °C 10 km+ 3.000 ft 030° 030° 6 kt METAR EGKK 052150Z 03006KT 9999 FEW018 BKN030 07/04 Q1024
21:20
V
7 °C 10 km+ 3.100 ft 010° 010° 5 kt METAR EGKK 052120Z 01005KT 350V070 9999 FEW020 BKN031 07/04 Q1023
20:50
V
7 °C 10 km+ - 030° 030° 6 kt METAR EGKK 052050Z 03006KT 9999 FEW019 SCT037 07/04 Q1023
20:20
V
7 °C 10 km+ - 030° 030° 8 kt METAR EGKK 052020Z 03008KT 9999 FEW020 SCT032 07/04 Q1023
19:50
M
7 °C 10 km+ 2.800 ft 030° 030° 6 kt METAR EGKK 051950Z 03006KT 9999 BKN028 07/05 Q1023
19:20
V
7 °C 10 km+ 3.300 ft 030° 030° 7 kt METAR EGKK 051920Z 03007KT 9999 SCT016 BKN033 07/05 Q1023
18:50
V
7 °C 10 km+ 4.000 ft 030° 030° 8 kt METAR EGKK 051850Z 03008KT 9999 SCT018 BKN040 07/05 Q1023
18:20
M
7 °C 10 km+ 1.500 ft 030° 030° 7 kt METAR EGKK 051820Z 03007KT 9999 BKN015 BKN039 07/05 Q1022
17:50
M
7 °C 10 km+ 1.700 ft 030° 030° 7 kt METAR EGKK 051750Z 03007KT 9999 BKN017 07/05 Q1022
17:20
M
7 °C 10 km+ 2.000 ft 020° 020° 6 kt METAR EGKK 051720Z 02006KT 9999 SCT015 BKN020 07/05 Q1022
16:50
V
7 °C 10 km+ - 030° 030° 8 kt METAR EGKK 051650Z 03008KT 9999 SCT022 SCT033 07/05 Q1022
16:20
V
7 °C 10 km+ - 010° 010° 7 kt METAR EGKK 051620Z 01007KT 9999 SCT025 07/05 Q1022
15:50
V
7 °C 10 km+ 4.400 ft 010° 010° 7 kt METAR EGKK 051550Z 01007KT 9999 SCT029 BKN044 07/05 Q1022
15:20
V
7 °C 10 km+ - 020° 020° 7 - 17 kt METAR EGKK 051520Z 02007G17KT 350V120 9999 FEW020 SCT036 07/05 Q1021
14:50
V
8 °C 10 km+ - 020° 020° 6 kt METAR EGKK 051450Z 02006KT 9999 SCT020 08/05 Q1021
14:20
V
7 °C 10 km+ - 010° 010° 9 kt METAR EGKK 051420Z 01009KT 350V100 9999 FEW034 07/05 Q1021
13:50
V
7 °C 10 km+ - 360° 360° 6 kt METAR EGKK 051350Z 36006KT 9999 FEW019 SCT028 07/05 Q1021
13:20
M
7 °C 10 km+ 2.800 ft 020° 020° 9 kt METAR EGKK 051320Z 02009KT 9999 BKN028 07/05 Q1021
12:50
V
7 °C 10 km+ 3.500 ft Var Var 7 kt METAR EGKK 051250Z VRB07KT 9999 BKN035 07/04 Q1021
12:20
V
7 °C 10 km+ 3.800 ft 020° 020° 6 kt METAR EGKK 051220Z 02006KT 340V140 9999 BKN038 07/04 Q1021
11:50
V
7 °C 10 km+ 3.700 ft 010° 010° 6 kt METAR EGKK 051150Z 01006KT 340V080 9999 BKN037 07/04 Q1022
11:20
M
6 °C 10 km+ 1.800 ft Var Var 5 - 16 kt METAR EGKK 051120Z VRB05G16KT 9999 BKN018 06/04 Q1022
10:50
M
6 °C 10 km+ 2.000 ft Var Var 4 kt METAR EGKK 051050Z VRB04KT 9999 BKN020 06/04 Q1022
10:20
V
6 °C 10 km+ 3.000 ft 010° 010° 3 kt METAR EGKK 051020Z 01003KT 320V050 9999 FEW019 BKN030 06/04 Q1021
09:50
M
6 °C 10 km+ 2.500 ft 010° 010° 6 kt METAR EGKK 050950Z 01006KT 340V160 9999 BKN025 06/04 Q1021
09:20
M
6 °C 10 km+ 2.800 ft 360° 360° 6 kt METAR EGKK 050920Z 36006KT 230V050 9999 FEW023 BKN028 06/03 Q1021
08:50
V
6 °C 10 km+ 3.400 ft 360° 360° 8 kt METAR EGKK 050850Z 36008KT 9999 FEW024 BKN034 06/04 Q1021
08:20
V
6 °C 10 km+ 3.000 ft 360° 360° 7 kt METAR EGKK 050820Z 36007KT 9999 FEW022 BKN030 06/04 Q1021
07:50
M
5 °C 10 km+ 2.800 ft 020° 020° 4 kt METAR EGKK 050750Z 02004KT 350V060 9999 BKN028 05/04 Q1020
07:20
M
5 °C 10 km+ 2.500 ft 010° 010° 5 kt METAR EGKK 050720Z 01005KT 9999 FEW014 BKN025 05/04 Q1020
06:50
M
5 °C 10 km+ 2.000 ft 010° 010° 6 kt METAR EGKK 050650Z 01006KT 9999 FEW013 BKN020 05/04 Q1020
06:20
M
5 °C 10 km+ 2.300 ft 010° 010° 9 kt METAR EGKK 050620Z 01009KT 9999 SCT011 BKN023 05/04 Q1020
05:50
M
5 °C 10 km+ 1.800 ft 020° 020° 8 kt METAR EGKK 050550Z 02008KT 9999 SCT010 BKN018 05/04 Q1019
05:20
I
5 °C 10 km+ 900 ft 010° 010° 7 kt METAR EGKK 050520Z 01007KT 9999 BKN009 BKN017 05/04 Q1019
04:50
I
5 °C 9 km 900 ft 010° 010° 8 kt METAR EGKK 050450Z 01008KT 9000 FEW007 BKN009 05/04 Q1019
04:20
M
5 °C 8 km 1.500 ft 010° 010° 8 kt METAR EGKK 050420Z 01008KT 8000 SCT009 BKN015 05/04 Q1019
03:50
M
5 °C 10 km+ 1.800 ft 020° 020° 7 kt METAR EGKK 050350Z 02007KT 9999 FEW011 BKN018 05/04 Q1019
03:20
M
5 °C 8 km 1.000 ft 010° 010° 7 kt METAR EGKK 050320Z 01007KT 8000 FEW008 BKN010 05/04 Q1019
02:50
I
4 °C 8 km 800 ft 010° 010° 7 kt METAR EGKK 050250Z 01007KT 8000 BKN008 04/03 Q1019
02:20
I
4 °C 8 km 800 ft 020° 020° 8 kt METAR EGKK 050220Z 02008KT 8000 -DZ FEW006 BKN008 04/03 Q1019
01:50
I
4 °C 7 km 600 ft 020° 020° 6 kt METAR EGKK 050150Z 02006KT 7000 -DZ OVC006 04/03 Q1018
01:20
I
4 °C 6 km 700 ft 010° 010° 8 kt METAR EGKK 050120Z 01008KT 6000 -RADZ BKN007 04/03 Q1018
00:50
I
4 °C 6 km 700 ft 010° 010° 7 kt METAR EGKK 050050Z 01007KT 6000 -RADZ BKN007 04/03 Q1018
00:20
M
4 °C 8 km 1.000 ft 010° 010° 9 kt METAR EGKK 050020Z 01009KT 8000 BKN010 04/03 Q1018

4 december 2022

Tijd Code Weer Temp. Zicht Plafond Wind METAR/SPECI
23:50
M
4 °C 8 km 1.300 ft 010° 010° 7 kt METAR EGKK 042350Z 01007KT 8000 BKN013 04/03 Q1018
23:20
I
4 °C 9 km 900 ft 010° 010° 7 kt METAR EGKK 042320Z 01007KT 9000 BKN009 04/03 Q1018
22:50
M
4 °C 10 km+ 1.000 ft 020° 020° 7 kt METAR EGKK 042250Z 02007KT 9999 BKN010 04/02 Q1018
22:20
M
4 °C 10 km+ 1.000 ft 020° 020° 8 kt METAR EGKK 042220Z 02008KT 9999 BKN010 04/02 Q1018
21:50
M
4 °C 10 km+ 1.200 ft 020° 020° 7 kt METAR EGKK 042150Z 02007KT 9999 BKN012 04/02 Q1018
21:20
M
4 °C 10 km+ 1.200 ft 030° 030° 9 kt METAR EGKK 042120Z 03009KT 9999 BKN012 04/02 Q1018
20:50
M
4 °C 10 km+ 1.300 ft 020° 020° 8 kt METAR EGKK 042050Z 02008KT 9999 BKN013 04/02 Q1018
20:20
M
4 °C 10 km+ 1.600 ft 020° 020° 9 kt METAR EGKK 042020Z 02009KT 9999 BKN016 04/02 Q1017
19:50
M
4 °C 10 km+ 1.600 ft 020° 020° 10 kt METAR EGKK 041950Z 02010KT 9999 BKN016 04/02 Q1017
19:20
M
4 °C 10 km+ 1.500 ft 020° 020° 9 kt METAR EGKK 041920Z 02009KT 9999 OVC015 04/02 Q1017
18:50
M
5 °C 10 km+ 1.500 ft 030° 030° 9 kt METAR EGKK 041850Z 03009KT 9999 BKN015 05/02 Q1017
18:20
M
5 °C 10 km+ 1.800 ft 030° 030° 10 kt METAR EGKK 041820Z 03010KT 010V120 9999 BKN018 05/02 Q1017
17:50
M
5 °C 10 km+ 1.900 ft 040° 040° 12 kt METAR EGKK 041750Z 04012KT 9999 BKN019 05/02 Q1017
17:20
M
5 °C 10 km+ 1.800 ft 040° 040° 9 kt METAR EGKK 041720Z 04009KT 9999 BKN018 05/02 Q1016
16:50
M
5 °C 10 km+ 2.200 ft 050° 050° 13 kt METAR EGKK 041650Z 05013KT 9999 BKN022 05/01 Q1016
16:20
M
5 °C 10 km+ 1.800 ft 040° 040° 14 kt METAR EGKK 041620Z 04014KT 9999 BKN018 05/02 Q1016
15:50
M
6 °C 10 km+ 2.000 ft 050° 050° 11 kt METAR EGKK 041550Z 05011KT 9999 BKN020 06/02 Q1016
15:20
M
6 °C 10 km+ 2.000 ft 040° 040° 12 kt METAR EGKK 041520Z 04012KT 9999 BKN020 06/02 Q1015
14:50
M
5 °C 10 km+ 2.000 ft 050° 050° 7 kt METAR EGKK 041450Z 05007KT 010V090 9999 BKN020 05/02 Q1015
14:20
M
5 °C 10 km+ 2.000 ft 060° 060° 5 - 15 kt METAR EGKK 041420Z 06005G15KT 360V110 9999 BKN020 05/02 Q1015
13:50
M
5 °C 10 km+ 2.100 ft 060° 060° 5 kt METAR EGKK 041350Z 06005KT 020V090 9999 BKN021 05/02 Q1015
13:20
M
5 °C 10 km+ 2.200 ft 070° 070° 6 kt METAR EGKK 041320Z 07006KT 9999 BKN022 05/02 Q1015
12:50
M
5 °C 10 km+ 2.100 ft 060° 060° 8 kt METAR EGKK 041250Z 06008KT 010V090 9999 BKN021 05/02 Q1015
12:20
M
5 °C 10 km+ 2.200 ft 060° 060° 8 kt METAR EGKK 041220Z 06008KT 9999 BKN022 05/02 Q1015
11:50
M
5 °C 10 km+ 2.200 ft 060° 060° 9 kt METAR EGKK 041150Z 06009KT 030V090 9999 BKN022 05/02 Q1016
11:20
M
5 °C 10 km+ 2.200 ft 080° 080° 8 kt METAR EGKK 041120Z 08008KT 9999 BKN022 05/02 Q1016
10:50
M
5 °C 10 km+ 1.900 ft 070° 070° 9 kt METAR EGKK 041050Z 07009KT 9999 BKN019 05/02 Q1016
10:20
M
4 °C 10 km+ 1.900 ft 070° 070° 8 kt METAR EGKK 041020Z 07008KT 9999 BKN019 04/02 Q1016
09:50
M
4 °C 10 km+ 1.800 ft 070° 070° 9 kt METAR EGKK 040950Z 07009KT 9999 BKN018 04/01 Q1016

Wij en derden volgen je internetgedrag op onze website met cookies. Als je doorgaat, gaan we ervan uit dat je akkoord gaat met onze cookiebeleid.